Time;durP1;ratioP1;P1;durP2;ratioP2;P2;SDS_P1;SDS_P2;PMS_P1;PMS_P2;Temp;Humidity;BMP_temperature;BMP_pressure;BME280_temperature;BME280_humidity;BME280_pressure;Samples;Min_cycle;Max_cycle;Signal;HPM_P1;HPM_P2
2023/07/13 00:00:01;;;;;;;7.27;4.47;;;17.90;99.90;;;;;;5094442;28;20275;-76
2023/07/13 00:02:29;;;;;;;6.63;4.63;;;17.90;99.90;;;;;;5094446;28;20217;-77
2023/07/13 00:04:59;;;;;;;7.63;4.83;;;17.90;99.90;;;;;;5094146;28;20571;-78
2023/07/13 00:07:27;;;;;;;6.87;4.43;;;17.80;99.90;;;;;;5094328;28;20218;-81
2023/07/13 00:09:55;;;;;;;6.13;4.00;;;17.80;99.90;;;;;;5094468;28;20235;-79
2023/07/13 00:12:26;;;;;;;5.23;3.97;;;17.80;99.90;;;;;;5093994;28;20294;-78
2023/07/13 00:14:54;;;;;;;5.63;4.10;;;17.80;99.90;;;;;;5094394;28;20637;-76
2023/07/13 00:17:22;;;;;;;7.07;4.50;;;17.80;99.90;;;;;;5094055;28;20218;-74
2023/07/13 00:19:50;;;;;;;7.47;4.57;;;17.80;99.90;;;;;;5093928;28;20223;-76
2023/07/13 00:22:20;;;;;;;8.47;4.63;;;17.80;99.90;;;;;;5093378;28;20203;-80
2023/07/13 00:24:48;;;;;;;9.33;4.40;;;17.80;99.90;;;;;;5093396;28;20585;-78
2023/07/13 00:27:17;;;;;;;6.60;4.63;;;17.70;99.90;;;;;;5093725;28;20599;-78
2023/07/13 00:29:45;;;;;;;6.53;4.33;;;17.70;99.90;;;;;;5093543;28;20739;-77
2023/07/13 00:32:13;;;;;;;6.83;4.73;;;17.70;99.90;;;;;;5093238;28;20268;-76
2023/07/13 00:34:42;;;;;;;5.43;4.17;;;17.70;99.90;;;;;;5093511;28;20247;-77
2023/07/13 00:37:11;;;;;;;5.60;4.83;;;17.70;99.90;;;;;;5093399;28;20662;-77
2023/07/13 00:39:40;;;;;;;7.00;4.43;;;17.70;99.90;;;;;;5093635;28;20210;-77
2023/07/13 00:42:08;;;;;;;5.83;3.97;;;17.70;99.90;;;;;;5093309;28;20635;-75
2023/07/13 00:44:36;;;;;;;7.53;4.33;;;17.70;99.90;;;;;;5093423;28;20289;-77
2023/07/13 00:47:05;;;;;;;9.93;4.10;;;17.70;99.90;;;;;;5093459;28;20269;-77
2023/07/13 00:49:36;;;;;;;6.53;3.70;;;17.70;99.90;;;;;;5093061;28;20720;-77
2023/07/13 00:52:07;;;;;;;7.00;4.43;;;17.70;99.90;;;;;;5112780;28;20301;-76
2023/07/13 00:54:39;;;;;;;7.20;4.20;;;17.60;99.90;;;;;;5113802;28;20249;-78
2023/07/13 00:57:12;;;;;;;7.03;4.07;;;17.60;99.90;;;;;;5113812;28;20245;-79
2023/07/13 00:59:43;;;;;;;6.53;4.07;;;17.60;99.90;;;;;;5093524;28;20541;-77
2023/07/13 01:02:12;;;;;;;6.00;3.70;;;17.60;99.90;;;;;;5092898;28;20293;-77
2023/07/13 01:04:43;;;;;;;5.73;3.90;;;17.60;99.90;;;;;;5093394;28;20207;-75
2023/07/13 01:07:12;;;;;;;8.03;3.90;;;17.60;99.90;;;;;;5093142;28;20220;-76
2023/07/13 01:09:41;;;;;;;6.17;4.37;;;17.60;99.90;;;;;;5093445;28;20219;-77
2023/07/13 01:12:11;;;;;;;5.47;3.83;;;17.60;99.90;;;;;;5093248;28;20206;-78
2023/07/13 01:14:39;;;;;;;6.53;4.03;;;17.60;99.90;;;;;;5093146;28;20198;-78
2023/07/13 01:17:09;;;;;;;8.60;3.53;;;17.60;99.90;;;;;;5092853;28;20238;-76
2023/07/13 01:19:39;;;;;;;5.97;3.73;;;17.50;99.90;;;;;;5092731;28;20672;-77
2023/07/13 01:22:11;;;;;;;5.80;4.03;;;17.50;99.90;;;;;;5092521;28;20583;-75
2023/07/13 01:24:43;;;;;;;5.87;4.10;;;17.50;99.90;;;;;;5093213;28;20187;-77
2023/07/13 01:27:12;;;;;;;6.30;3.90;;;17.50;99.90;;;;;;5092732;28;20692;-75
2023/07/13 01:29:42;;;;;;;6.67;3.93;;;17.50;99.90;;;;;;5092940;28;20305;-76
2023/07/13 01:32:12;;;;;;;7.13;3.83;;;17.50;99.90;;;;;;5092592;28;20701;-78
2023/07/13 01:34:42;;;;;;;10.60;4.20;;;17.40;99.90;;;;;;5092454;28;20684;-78
2023/07/13 01:37:12;;;;;;;10.17;4.00;;;17.40;99.90;;;;;;5093122;28;20203;-77
2023/07/13 01:39:41;;;;;;;7.20;3.53;;;17.40;99.90;;;;;;5093190;28;20207;-77
2023/07/13 01:42:09;;;;;;;6.53;3.70;;;17.40;99.90;;;;;;5093232;28;20245;-79
2023/07/13 01:44:37;;;;;;;9.10;4.07;;;17.40;99.90;;;;;;5092866;28;20298;-78
2023/07/13 01:47:06;;;;;;;6.73;3.73;;;17.40;99.90;;;;;;5092988;28;20227;-79
2023/07/13 01:49:34;;;;;;;6.70;3.93;;;17.40;99.90;;;;;;5092926;28;20207;-79
2023/07/13 01:52:02;;;;;;;6.00;3.63;;;17.40;99.90;;;;;;5092857;28;20430;-78
2023/07/13 01:54:33;;;;;;;9.97;4.07;;;17.40;99.90;;;;;;5092696;28;20382;-78
2023/07/13 01:57:03;;;;;;;6.30;4.00;;;17.40;99.90;;;;;;5092475;28;20261;-78
2023/07/13 01:59:33;;;;;;;8.40;3.87;;;17.40;99.90;;;;;;5092184;28;20305;-77
2023/07/13 02:02:01;;;;;;;13.30;4.17;;;17.40;99.90;;;;;;5091789;28;20221;-79
2023/07/13 02:04:29;;;;;;;7.93;3.83;;;17.40;99.90;;;;;;5092481;28;20218;-78
2023/07/13 02:06:57;;;;;;;8.63;3.90;;;17.40;99.90;;;;;;5092087;28;20238;-77
2023/07/13 02:09:25;;;;;;;10.10;4.30;;;17.40;99.90;;;;;;5091840;28;20691;-78
2023/07/13 02:11:55;;;;;;;8.27;3.90;;;17.50;99.90;;;;;;5091863;28;20217;-79
2023/07/13 02:14:23;;;;;;;8.03;3.87;;;17.50;99.90;;;;;;5093619;28;20238;-79
2023/07/13 02:16:51;;;;;;;7.93;3.70;;;17.50;99.90;;;;;;5114497;28;20561;-80
2023/07/13 02:19:19;;;;;;;9.67;3.67;;;17.50;99.90;;;;;;5116521;28;20296;-75
2023/07/13 02:21:47;;;;;;;7.17;4.00;;;17.40;99.90;;;;;;5116715;28;20214;-78
2023/07/13 02:24:17;;;;;;;7.17;4.23;;;17.50;99.90;;;;;;5108242;28;20206;-79
2023/07/13 02:26:45;;;;;;;7.87;3.63;;;17.40;99.90;;;;;;5096048;28;20223;-79
2023/07/13 02:29:15;;;;;;;6.77;3.90;;;17.40;99.90;;;;;;5096659;28;20889;-79
2023/07/13 02:31:43;;;;;;;10.17;4.27;;;17.40;99.90;;;;;;5095716;28;20214;-80
2023/07/13 02:34:11;;;;;;;5.67;3.50;;;17.40;99.90;;;;;;5103619;28;20271;-80
2023/07/13 02:36:39;;;;;;;5.50;3.60;;;17.30;99.90;;;;;;5116308;28;20663;-79
2023/07/13 02:39:07;;;;;;;9.03;4.07;;;17.30;99.90;;;;;;5116268;28;20271;-78
2023/07/13 02:41:35;;;;;;;7.57;3.87;;;17.30;99.90;;;;;;5112925;28;20206;-80
2023/07/13 02:44:04;;;;;;;6.57;4.00;;;17.30;99.90;;;;;;5095278;28;20246;-80
2023/07/13 02:46:35;;;;;;;8.77;4.13;;;17.20;99.90;;;;;;5095774;28;20218;-78
2023/07/13 02:49:04;;;;;;;7.87;4.10;;;17.20;99.90;;;;;;5095883;28;20207;-79
2023/07/13 02:51:33;;;;;;;5.80;3.80;;;17.20;99.90;;;;;;5107763;28;20297;-77
2023/07/13 02:54:02;;;;;;;7.40;4.13;;;17.20;99.90;;;;;;5115950;28;20324;-76
2023/07/13 02:56:32;;;;;;;9.37;4.20;;;17.10;99.90;;;;;;5116002;28;20202;-78
2023/07/13 02:59:00;;;;;;;9.50;4.20;;;17.10;99.90;;;;;;5115566;28;20238;-78
2023/07/13 03:01:28;;;;;;;6.50;4.57;;;17.10;99.90;;;;;;5096214;28;20227;-79
2023/07/13 03:03:57;;;;;;;6.17;4.20;;;17.10;99.90;;;;;;5095385;28;20206;-76
2023/07/13 03:06:25;;;;;;;7.10;4.30;;;17.10;99.90;;;;;;5095522;28;20683;-79
2023/07/13 03:08:53;;;;;;;6.60;4.97;;;17.10;99.90;;;;;;5095076;28;20245;-74
2023/07/13 03:11:21;;;;;;;7.83;4.50;;;17.10;99.90;;;;;;5095408;28;20260;-78
2023/07/13 03:13:49;;;;;;;6.63;4.97;;;17.10;99.90;;;;;;5095408;28;20206;-80
2023/07/13 03:16:18;;;;;;;6.23;4.90;;;17.10;99.90;;;;;;5095402;28;20203;-78
2023/07/13 03:18:48;;;;;;;6.87;4.90;;;17.10;99.90;;;;;;5115188;28;20249;-79
2023/07/13 03:21:17;;;;;;;6.77;5.00;;;17.10;99.90;;;;;;5115496;28;20206;-74
2023/07/13 03:23:46;;;;;;;8.70;5.10;;;17.20;99.90;;;;;;5115247;28;20639;-77
2023/07/13 03:26:16;;;;;;;7.63;5.60;;;17.20;99.90;;;;;;5109860;28;20202;-77
2023/07/13 03:28:45;;;;;;;7.50;5.27;;;17.20;99.90;;;;;;5095703;28;20187;-79
2023/07/13 03:31:15;;;;;;;8.63;5.30;;;17.20;99.90;;;;;;5094951;28;20225;-78
2023/07/13 03:33:43;;;;;;;8.83;5.67;;;17.20;99.90;;;;;;5094447;28;20282;-80
2023/07/13 03:36:18;;;;;;;8.97;6.30;;;17.20;99.90;;;;;;5097493;28;20210;-82
2023/07/13 03:38:49;;;;;;;12.10;6.37;;;17.30;99.90;;;;;;5106010;28;20302;-78
2023/07/13 03:41:18;;;;;;;9.23;6.20;;;17.30;99.90;;;;;;5104629;28;20234;-77
2023/07/13 03:43:47;;;;;;;10.70;7.03;;;17.30;99.90;;;;;;5103260;28;20227;-80
2023/07/13 03:46:15;;;;;;;11.40;7.03;;;17.30;99.90;;;;;;5104859;28;20255;-81
2023/07/13 03:48:46;;;;;;;11.43;7.17;;;17.30;99.90;;;;;;5105229;28;20242;-79
2023/07/13 03:51:16;;;;;;;9.20;7.10;;;17.20;99.90;;;;;;5103832;28;20234;-80
2023/07/13 03:53:45;;;;;;;13.77;7.30;;;17.30;99.90;;;;;;5103191;28;20203;-80
2023/07/13 03:56:15;;;;;;;9.73;7.80;;;17.20;99.90;;;;;;5103259;28;20722;-81
2023/07/13 03:58:44;;;;;;;10.73;7.47;;;17.30;99.90;;;;;;5103101;28;20215;-80
2023/07/13 04:01:15;;;;;;;11.37;7.50;;;17.30;99.90;;;;;;5103631;28;20683;-80
2023/07/13 04:03:44;;;;;;;11.50;7.27;;;17.20;99.90;;;;;;5103588;28;20206;-78
2023/07/13 04:06:20;;;;;;;9.17;7.10;;;17.20;99.90;;;;;;5094151;28;20287;-80
2023/07/13 04:08:51;;;;;;;9.07;6.40;;;17.20;99.90;;;;;;5094667;28;20202;-79
2023/07/13 04:11:21;;;;;;;10.57;6.20;;;17.20;99.90;;;;;;5093914;28;20825;-80
2023/07/13 04:13:50;;;;;;;9.77;6.60;;;17.10;99.90;;;;;;5092911;28;20233;-79
2023/07/13 04:16:19;;;;;;;9.13;6.10;;;17.10;99.90;;;;;;5093453;28;20609;-78
2023/07/13 04:18:49;;;;;;;8.77;6.00;;;17.10;99.90;;;;;;5095966;28;20226;-79
2023/07/13 04:21:17;;;;;;;9.03;5.77;;;17.10;99.90;;;;;;5104948;28;20225;-78
2023/07/13 04:23:46;;;;;;;7.73;5.57;;;17.10;99.90;;;;;;5101463;28;20214;-77
2023/07/13 04:26:14;;;;;;;8.43;5.83;;;17.10;99.90;;;;;;5102965;28;20233;-79
2023/07/13 04:28:43;;;;;;;8.40;5.63;;;17.10;99.90;;;;;;5102583;28;20233;-77
2023/07/13 04:31:11;;;;;;;9.77;5.80;;;17.10;99.90;;;;;;5102264;28;20401;-78
2023/07/13 04:33:39;;;;;;;6.93;5.80;;;17.10;99.90;;;;;;5101618;28;20203;-80
2023/07/13 04:36:09;;;;;;;11.60;6.50;;;17.10;99.90;;;;;;5104209;28;20202;-79
2023/07/13 04:38:41;;;;;;;6.80;5.87;;;17.00;99.90;;;;;;5103494;28;20207;-76
2023/07/13 04:41:10;;;;;;;7.03;5.90;;;17.10;99.90;;;;;;5101869;28;20205;-75
2023/07/13 04:43:38;;;;;;;10.00;6.87;;;17.10;99.90;;;;;;5102810;28;20605;-79
2023/07/13 04:46:09;;;;;;;9.47;6.47;;;17.00;99.90;;;;;;5102027;28;20754;-76
2023/07/13 04:48:38;;;;;;;8.73;6.33;;;17.10;99.90;;;;;;5103382;28;20190;-76
2023/07/13 04:51:07;;;;;;;9.03;6.10;;;17.10;99.90;;;;;;5104410;28;20194;-75
2023/07/13 04:53:36;;;;;;;10.23;6.53;;;17.10;99.90;;;;;;5101103;28;20215;-78
2023/07/13 04:56:05;;;;;;;7.67;6.20;;;17.10;99.90;;;;;;5102194;28;20259;-77
2023/07/13 04:58:34;;;;;;;9.40;6.40;;;17.10;99.90;;;;;;5103024;28;20226;-78
2023/07/13 05:01:02;;;;;;;9.33;6.97;;;17.20;99.90;;;;;;5103805;28;20223;-77
2023/07/13 05:03:32;;;;;;;8.03;6.70;;;17.20;99.90;;;;;;5101864;28;20214;-80
2023/07/13 05:06:03;;;;;;;11.60;6.93;;;17.30;99.90;;;;;;5101726;28;20287;-80
2023/07/13 05:08:32;;;;;;;9.30;6.00;;;17.30;99.90;;;;;;5102359;28;20664;-78
2023/07/13 05:11:00;;;;;;;7.23;5.83;;;17.30;99.90;;;;;;5102467;28;20207;-77
2023/07/13 05:13:29;;;;;;;7.53;6.43;;;17.30;99.90;;;;;;5104389;28;20242;-80
2023/07/13 05:15:59;;;;;;;9.87;6.40;;;17.30;99.90;;;;;;5102808;28;20206;-77
2023/07/13 05:18:27;;;;;;;10.60;6.00;;;17.30;99.90;;;;;;5100730;28;20318;-77
2023/07/13 05:21:00;;;;;;;8.77;5.73;;;17.30;99.90;;;;;;5101667;28;20211;-76
2023/07/13 05:23:28;;;;;;;6.53;5.40;;;17.30;99.90;;;;;;5103723;28;20198;-79
2023/07/13 05:25:56;;;;;;;9.20;5.90;;;17.30;99.90;;;;;;5102369;28;20214;-77
2023/07/13 05:28:24;;;;;;;8.13;5.50;;;17.30;99.90;;;;;;5098879;28;20288;-76
2023/07/13 05:30:53;;;;;;;10.17;5.70;;;17.30;99.90;;;;;;5101840;28;20207;-79
2023/07/13 05:33:22;;;;;;;7.33;5.30;;;17.30;99.90;;;;;;5102043;28;20205;-77
2023/07/13 05:35:50;;;;;;;7.43;5.10;;;17.30;99.90;;;;;;5101521;28;20217;-79
2023/07/13 05:38:20;;;;;;;7.50;5.37;;;17.30;99.90;;;;;;5101538;28;20294;-79
2023/07/13 05:40:48;;;;;;;7.40;5.03;;;17.30;99.90;;;;;;5103311;28;20210;-80
2023/07/13 05:43:16;;;;;;;6.53;5.17;;;17.30;99.90;;;;;;5101188;28;20198;-76
2023/07/13 05:45:44;;;;;;;6.87;4.60;;;17.20;99.90;;;;;;5102862;28;20308;-79
2023/07/13 05:48:13;;;;;;;7.13;5.00;;;17.20;99.90;;;;;;5100867;28;20284;-78
2023/07/13 05:50:41;;;;;;;8.37;4.80;;;17.20;99.90;;;;;;5101900;28;20229;-79
2023/07/13 05:53:09;;;;;;;7.73;4.43;;;17.20;99.90;;;;;;5100909;28;20239;-76
2023/07/13 05:55:42;;;;;;;6.47;4.77;;;17.10;99.90;;;;;;5101803;28;20206;-76
2023/07/13 05:58:10;;;;;;;7.70;5.23;;;17.10;99.90;;;;;;5093751;28;20199;-77
2023/07/13 06:00:38;;;;;;;6.00;4.23;;;17.20;99.90;;;;;;5094890;28;20261;-77
2023/07/13 06:03:07;;;;;;;7.67;5.20;;;17.20;99.90;;;;;;5100625;28;20210;-74
2023/07/13 06:05:37;;;;;;;7.10;4.73;;;17.20;99.90;;;;;;5093516;28;20214;-75
2023/07/13 06:08:05;;;;;;;7.33;4.60;;;17.10;99.90;;;;;;5092830;28;20214;-77
2023/07/13 06:10:34;;;;;;;8.47;5.00;;;17.20;99.90;;;;;;5092955;28;20339;-79
2023/07/13 06:13:04;;;;;;;7.27;5.40;;;17.20;99.90;;;;;;5092183;28;20210;-81
2023/07/13 06:15:32;;;;;;;7.33;4.80;;;17.30;99.90;;;;;;5092733;28;20207;-79
2023/07/13 06:18:00;;;;;;;8.63;4.90;;;17.40;99.90;;;;;;5092009;28;20664;-78
2023/07/13 06:20:30;;;;;;;7.93;5.20;;;17.50;99.90;;;;;;5092001;28;20234;-75
2023/07/13 06:22:58;;;;;;;7.27;4.50;;;17.70;99.90;;;;;;5108042;28;20298;-76
2023/07/13 06:25:27;;;;;;;7.07;4.20;;;17.70;99.90;;;;;;5112713;28;20634;-82
2023/07/13 06:27:55;;;;;;;8.93;4.10;;;18.00;99.90;;;;;;5112833;28;20255;-77
2023/07/13 06:30:25;;;;;;;4.57;3.93;;;18.10;99.90;;;;;;5103274;28;20214;-79
2023/07/13 06:32:53;;;;;;;7.70;4.17;;;18.30;99.90;;;;;;5091834;28;20558;-78
2023/07/13 06:35:21;;;;;;;6.67;3.77;;;18.60;99.90;;;;;;5092565;28;20211;-76
2023/07/13 06:37:50;;;;;;;6.47;3.60;;;18.80;99.90;;;;;;5092518;28;20214;-77
2023/07/13 06:40:18;;;;;;;6.13;3.57;;;19.00;99.90;;;;;;5092198;28;20234;-75
2023/07/13 06:42:46;;;;;;;7.17;3.13;;;19.20;99.90;;;;;;5091743;28;20669;-75
2023/07/13 06:45:14;;;;;;;5.73;2.83;;;19.70;99.90;;;;;;5096781;28;20248;-76
2023/07/13 06:47:43;;;;;;;4.87;2.90;;;20.70;99.90;;;;;;5100236;28;20252;-76
2023/07/13 06:50:11;;;;;;;6.77;3.00;;;21.90;99.90;;;;;;5101705;28;20207;-77
2023/07/13 06:52:40;;;;;;;7.13;2.80;;;22.80;99.90;;;;;;5102852;28;20202;-77
2023/07/13 06:55:09;;;;;;;5.67;2.83;;;23.80;99.90;;;;;;5100579;28;20579;-77
2023/07/13 06:57:37;;;;;;;3.97;2.20;;;25.10;99.90;;;;;;5100044;28;20273;-78
2023/07/13 07:00:06;;;;;;;6.22;2.50;;;25.70;99.90;;;;;;5101419;28;20222;-75
2023/07/13 07:02:34;;;;;;;6.03;2.60;;;25.60;99.90;;;;;;5105447;28;20206;-76
2023/07/13 07:05:04;;;;;;;4.97;2.50;;;24.80;99.90;;;;;;5103825;28;20210;-74
2023/07/13 07:07:33;;;;;;;7.93;2.50;;;24.00;99.90;;;;;;5095757;28;20207;-75
2023/07/13 07:10:01;;;;;;;4.60;2.60;;;23.10;99.90;;;;;;5095675;28;20553;-76
2023/07/13 07:12:29;;;;;;;7.63;2.80;;;22.30;99.90;;;;;;5095361;28;20294;-77
2023/07/13 07:14:57;;;;;;;5.87;2.70;;;21.80;99.90;;;;;;5095253;28;20264;-74
2023/07/13 07:17:26;;;;;;;7.20;2.70;;;21.80;99.90;;;;;;5095250;28;20261;-78
2023/07/13 07:19:54;;;;;;;7.03;2.37;;;21.80;99.90;;;;;;5095316;28;20660;-73
2023/07/13 07:22:26;;;;;;;7.70;2.53;;;21.90;99.90;;;;;;5094972;28;20214;-77
2023/07/13 07:24:55;;;;;;;7.23;2.27;;;21.90;99.90;;;;;;5095719;28;20202;-74
2023/07/13 07:27:23;;;;;;;6.07;2.50;;;21.90;99.90;;;;;;5093887;28;20704;-76
2023/07/13 07:29:54;;;;;;;5.40;2.40;;;21.70;99.90;;;;;;5095320;28;20289;-79
2023/07/13 07:32:43;;;;;;;5.17;2.30;;;21.40;99.90;;;;;;5101432;28;20226;-78
2023/07/13 07:35:14;;;;;;;4.97;2.10;;;21.10;99.90;;;;;;5115832;28;20234;-79
2023/07/13 07:37:43;;;;;;;5.17;2.20;;;21.00;99.90;;;;;;5115339;28;20582;-76
2023/07/13 07:40:15;;;;;;;5.30;2.23;;;21.30;99.90;;;;;;5114927;28;20266;-76
2023/07/13 07:42:46;;;;;;;4.47;2.23;;;22.40;99.90;;;;;;5105348;28;20736;-75
2023/07/13 07:45:15;;;;;;;5.33;2.17;;;23.10;99.90;;;;;;5104430;28;20248;-77
2023/07/13 07:47:43;;;;;;;4.30;1.90;;;23.70;99.90;;;;;;5103157;28;20199;-76
2023/07/13 07:50:11;;;;;;;4.63;2.03;;;24.40;99.90;;;;;;5104324;28;20321;-77
2023/07/13 07:52:39;;;;;;;5.93;2.20;;;24.30;99.90;;;;;;5108441;28;20202;-79
2023/07/13 07:55:09;;;;;;;5.67;2.07;;;23.50;99.90;;;;;;5114973;28;20596;-80
2023/07/13 07:57:40;;;;;;;3.27;1.93;;;23.20;99.90;;;;;;5108009;28;20298;-75
2023/07/13 08:00:12;;;;;;;5.10;1.80;;;23.00;99.90;;;;;;5105676;28;20267;-76
2023/07/13 08:02:44;;;;;;;6.40;2.00;;;22.40;99.90;;;;;;5103361;28;20224;-76
2023/07/13 08:05:15;;;;;;;4.93;1.90;;;22.10;99.90;;;;;;5099959;28;20211;-79
2023/07/13 08:07:46;;;;;;;6.73;2.30;;;21.70;99.90;;;;;;5099906;28;20219;-80
2023/07/13 08:10:16;;;;;;;7.00;2.10;;;21.40;99.90;;;;;;5102381;28;20806;-77
2023/07/13 08:12:44;;;;;;;6.60;2.20;;;21.00;99.90;;;;;;5101448;28;20573;-76
2023/07/13 08:15:32;;;;;;;4.20;1.97;;;20.80;99.90;;;;;;5102520;28;20206;-75
2023/07/13 08:18:00;;;;;;;6.20;2.30;;;20.60;99.90;;;;;;5101890;28;20255;-78
2023/07/13 08:20:29;;;;;;;2.63;1.80;;;20.40;99.90;;;;;;5097826;28;20246;-77
2023/07/13 08:22:57;;;;;;;3.77;2.00;;;20.30;99.90;;;;;;5092232;28;20214;-77
2023/07/13 08:25:26;;;;;;;3.13;2.17;;;20.30;99.90;;;;;;5093603;28;20210;-77
2023/07/13 08:27:54;;;;;;;5.13;2.13;;;20.40;99.90;;;;;;5093439;28;20202;-74
2023/07/13 08:30:23;;;;;;;3.27;2.23;;;20.20;99.90;;;;;;5095573;28;20195;-74
2023/07/13 08:32:51;;;;;;;5.83;2.07;;;20.10;99.90;;;;;;5094774;28;20214;-78
2023/07/13 08:35:19;;;;;;;5.43;2.53;;;20.20;99.90;;;;;;5092934;28;20207;-79
2023/07/13 08:37:47;;;;;;;8.23;2.17;;;20.20;99.90;;;;;;5092708;28;20207;-76
2023/07/13 08:40:15;;;;;;;5.37;2.20;;;20.20;99.90;;;;;;5092869;28;20299;-75
2023/07/13 08:42:50;;;;;;;3.63;2.07;;;19.90;99.90;;;;;;5092613;28;20260;-77
2023/07/13 08:45:22;;;;;;;5.07;2.30;;;19.70;99.90;;;;;;5092759;28;20315;-77
2023/07/13 08:47:55;;;;;;;5.17;2.30;;;19.60;99.90;;;;;;5093469;28;20283;-77
2023/07/13 08:50:28;;;;;;;4.03;2.00;;;19.50;99.90;;;;;;5095766;28;20667;-79
2023/07/13 08:52:59;;;;;;;5.40;2.57;;;19.40;99.90;;;;;;5113514;28;20255;-78
2023/07/13 08:55:33;;;;;;;5.63;2.27;;;19.40;99.90;;;;;;5113184;28;20202;-75
2023/07/13 08:58:10;;;;;;;3.40;2.30;;;19.30;99.90;;;;;;5104719;28;20210;-79
2023/07/13 09:00:47;;;;;;;9.50;2.63;;;19.20;99.90;;;;;;5092319;28;20242;-78
2023/07/13 09:03:22;;;;;;;5.57;2.40;;;19.20;99.90;;;;;;5092227;28;20219;-78
2023/07/13 09:05:54;;;;;;;7.30;2.23;;;19.10;99.90;;;;;;5092310;28;20206;-75
2023/07/13 09:08:39;;;;;;;5.97;2.27;;;19.10;99.90;;;;;;5092518;28;20211;-75
2023/07/13 09:11:23;;;;;;;4.83;2.13;;;19.20;99.90;;;;;;5092598;28;20203;-75
2023/07/13 09:14:02;;;;;;;9.87;2.10;;;19.30;99.90;;;;;;5091561;28;20195;-76
2023/07/13 09:16:30;;;;;;;3.83;1.80;;;19.20;99.90;;;;;;5108705;28;20292;-76
2023/07/13 09:19:05;;;;;;;6.20;2.03;;;19.20;99.90;;;;;;5112270;28;20206;-77
2023/07/13 09:21:37;;;;;;;3.50;1.70;;;19.10;99.90;;;;;;5112130;28;20312;-77
2023/07/13 09:24:28;;;;;;;3.70;1.47;;;18.80;99.90;;;;;;5100901;28;20617;-78
2023/07/13 09:26:58;;;;;;;4.37;1.60;;;18.60;99.90;;;;;;5092025;28;20489;-78
2023/07/13 09:29:34;;;;;;;5.60;1.63;;;18.50;99.90;;;;;;5091517;28;20742;-78
2023/07/13 09:32:07;;;;;;;4.13;1.83;;;18.60;99.90;;;;;;5104389;28;20224;-78
2023/07/13 09:34:35;;;;;;;7.57;1.57;;;18.50;99.90;;;;;;5091417;28;20297;-79
2023/07/13 09:37:05;;;;;;;3.47;1.40;;;18.50;99.90;;;;;;5091703;28;20611;-78
2023/07/13 09:39:37;;;;;;;2.70;1.60;;;18.40;99.90;;;;;;5089454;28;20207;-78
2023/07/13 09:42:15;;;;;;;4.90;1.70;;;18.50;99.90;;;;;;5070894;28;20223;-76
2023/07/13 09:44:53;;;;;;;4.80;1.60;;;18.70;99.90;;;;;;5071563;28;20216;-75
2023/07/13 09:47:26;;;;;;;3.43;1.67;;;19.00;99.90;;;;;;5070921;28;20246;-77
2023/07/13 09:49:58;;;;;;;3.40;1.30;;;19.10;99.90;;;;;;5071191;28;20219;-76
2023/07/13 09:52:41;;;;;;;2.93;1.50;;;19.50;99.90;;;;;;5071236;28;20192;-78
2023/07/13 09:55:26;;;;;;;3.37;1.60;;;19.70;99.90;;;;;;5071199;28;20199;-76
2023/07/13 09:57:54;;;;;;;4.17;1.57;;;20.10;99.90;;;;;;5070610;28;20211;-75
2023/07/13 10:00:27;;;;;;;4.70;1.77;;;20.50;99.90;;;;;;5070800;28;20311;-75
2023/07/13 10:03:04;;;;;;;4.40;1.70;;;20.80;99.90;;;;;;5070521;28;20220;-75
2023/07/13 10:05:44;;;;;;;3.43;1.50;;;20.90;99.90;;;;;;5071287;28;20234;-75
2023/07/13 10:08:22;;;;;;;5.30;1.70;;;21.30;99.90;;;;;;5071142;28;20207;-76
2023/07/13 10:10:58;;;;;;;5.30;1.90;;;21.60;99.90;;;;;;5070544;28;20661;-75
2023/07/13 10:13:36;;;;;;;4.90;1.40;;;21.50;99.90;;;;;;5070309;28;20214;-75
2023/07/13 10:16:08;;;;;;;5.83;1.80;;;21.80;99.90;;;;;;5070856;28;20204;-76
2023/07/13 10:18:43;;;;;;;4.20;1.70;;;21.90;99.90;;;;;;5070626;28;20211;-75
2023/07/13 10:21:17;;;;;;;7.23;1.50;;;22.20;99.90;;;;;;5071119;28;20226;-75
2023/07/13 10:24:10;;;;;;;6.80;1.57;;;22.80;99.90;;;;;;5070418;28;20211;-76
2023/07/13 10:26:44;;;;;;;4.30;1.70;;;22.80;99.90;;;;;;5070837;28;20569;-76
2023/07/13 10:29:16;;;;;;;4.17;1.73;;;23.20;99.90;;;;;;5070397;28;20746;-74
2023/07/13 10:31:46;;;;;;;6.03;1.80;;;23.60;99.90;;;;;;5070189;28;20835;-74
2023/07/13 10:34:15;;;;;;;3.60;1.53;;;24.40;99.90;;;;;;5070314;28;20195;-76
2023/07/13 10:36:45;;;;;;;4.13;1.80;;;25.40;96.40;;;;;;5074498;28;20268;-77
2023/07/13 10:39:18;;;;;;;3.00;1.50;;;26.10;95.60;;;;;;5074304;28;20292;-76
2023/07/13 10:41:50;;;;;;;3.58;1.73;;;26.00;91.70;;;;;;5074732;28;20289;-75
2023/07/13 10:44:26;;;;;;;5.40;1.58;;;26.50;93.00;;;;;;5074415;28;20670;-78
2023/07/13 10:46:59;;;;;;;5.18;1.67;;;27.30;93.00;;;;;;5067477;28;20247;-75
2023/07/13 10:49:30;;;;;;;3.28;1.92;;;27.70;87.60;;;;;;5076056;28;20283;-76
2023/07/13 10:51:59;;;;;;;2.80;1.70;;;27.80;76.90;;;;;;5075727;28;20203;-75
2023/07/13 10:54:31;;;;;;;4.55;1.50;;;27.90;81.00;;;;;;5076604;28;20625;-77
2023/07/13 10:57:17;;;;;;;3.88;1.70;;;27.80;72.70;;;;;;5075623;28;20247;-75
2023/07/13 10:59:49;;;;;;;3.92;1.42;;;26.90;73.10;;;;;;5076888;28;20216;-76
2023/07/13 11:02:27;;;;;;;3.20;1.80;;;26.40;77.20;;;;;;5077215;28;20226;-77
2023/07/13 11:04:58;;;;;;;3.88;1.58;;;26.80;78.80;;;;;;5075723;28;20203;-75
2023/07/13 11:07:29;;;;;;;3.03;1.42;;;27.10;79.80;;;;;;5075533;28;20207;-76
2023/07/13 11:09:59;;;;;;;4.70;1.70;;;27.50;84.80;;;;;;5075567;28;20207;-76
2023/07/13 11:12:50;;;;;;;3.25;1.65;;;27.20;71.20;;;;;;5081443;28;20206;-78
2023/07/13 11:15:34;;;;;;;4.47;1.70;;;27.30;70.40;;;;;;5099107;28;20187;-76
2023/07/13 11:18:21;;;;;;;4.68;1.50;;;27.30;71.70;;;;;;5096434;28;20579;-77
2023/07/13 11:20:50;;;;;;;5.47;1.73;;;26.80;80.50;;;;;;5091040;28;20222;-75
2023/07/13 11:23:31;;;;;;;4.93;1.80;;;26.40;75.30;;;;;;5075720;28;20207;-75
2023/07/13 11:26:01;;;;;;;5.25;1.90;;;26.00;72.40;;;;;;5075648;28;20242;-74
2023/07/13 11:28:32;;;;;;;3.13;1.50;;;25.80;77.00;;;;;;5078917;28;20211;-74
2023/07/13 11:31:16;;;;;;;3.87;1.90;;;25.40;77.10;;;;;;5101466;28;20234;-75
2023/07/13 11:33:58;;;;;;;4.60;1.67;;;25.30;81.90;;;;;;5100356;28;20241;-74
2023/07/13 11:36:32;;;;;;;6.40;1.73;;;25.40;81.00;;;;;;5100712;28;20518;-75
2023/07/13 11:39:05;;;;;;;2.90;1.63;;;25.40;83.60;;;;;;5092643;28;20202;-77
2023/07/13 11:41:38;;;;;;;4.13;1.80;;;25.00;87.90;;;;;;5089206;28;20234;-75
2023/07/13 11:44:15;;;;;;;6.23;1.77;;;25.20;88.00;;;;;;5087837;28;20207;-77
2023/07/13 11:46:47;;;;;;;2.53;1.53;;;25.00;81.80;;;;;;5088596;28;20249;-75
2023/07/13 11:49:23;;;;;;;6.40;2.00;;;24.90;86.10;;;;;;5091188;28;20277;-76
2023/07/13 11:51:55;;;;;;;5.00;1.90;;;25.00;81.80;;;;;;5078404;28;20219;-76
2023/07/13 11:54:29;;;;;;;4.50;1.93;;;25.10;79.60;;;;;;5081684;28;20234;-75
2023/07/13 11:57:01;;;;;;;3.37;1.83;;;25.80;83.60;;;;;;5086779;28;20211;-76
2023/07/13 13:35:18;;;;;;;2.33;1.47;;;25.80;76.40;;;;;;5072140;28;20254;-74
2023/07/13 13:38:05;;;;;;;3.93;1.73;;;25.90;79.30;;;;;;5130809;27;21170;-75
2023/07/13 13:40:33;;;;;;;3.43;1.60;;;26.00;73.40;;;;;;5121604;28;20260;-76
2023/07/13 13:43:02;;;;;;;4.67;1.60;;;26.30;75.10;;;;;;5109649;28;20217;-75
2023/07/13 13:45:30;;;;;;;3.47;1.53;;;26.20;70.20;;;;;;5110827;28;20210;-75
2023/07/13 13:47:58;;;;;;;3.67;1.53;;;26.00;74.40;;;;;;5114676;28;20677;-75
2023/07/13 13:50:26;;;;;;;3.90;1.60;;;25.90;77.60;;;;;;5132621;28;20296;-75
2023/07/13 13:52:55;;;;;;;4.93;1.73;;;26.30;74.60;;;;;;5126328;27;20205;-75
2023/07/13 13:55:25;;;;;;;3.30;1.50;;;26.20;74.10;;;;;;5130550;27;20254;-75
2023/07/13 13:57:53;;;;;;;5.10;1.60;;;25.80;74.60;;;;;;5130246;28;20233;-74
2023/07/13 14:00:22;;;;;;;3.50;1.73;;;24.90;72.10;;;;;;5128731;27;20635;-77
2023/07/13 14:02:51;;;;;;;3.97;1.80;;;24.50;75.60;;;;;;5129995;28;20228;-75
2023/07/13 14:05:23;;;;;;;3.03;1.60;;;24.40;81.20;;;;;;5128797;28;20194;-74
2023/07/13 14:07:52;;;;;;;4.30;1.80;;;24.30;76.40;;;;;;5128907;28;20244;-74
2023/07/13 14:10:22;;;;;;;5.27;1.60;;;24.20;78.20;;;;;;5130492;27;20213;-74
2023/07/13 14:12:54;;;;;;;4.97;1.50;;;24.20;76.80;;;;;;5130581;28;20206;-76
2023/07/13 14:15:24;;;;;;;3.57;1.70;;;24.20;79.20;;;;;;5113244;27;20210;-74
2023/07/13 14:17:53;;;;;;;2.53;1.57;;;24.40;84.00;;;;;;5110295;28;20257;-76
2023/07/13 14:20:24;;;;;;;3.23;1.60;;;24.60;81.10;;;;;;5109731;28;20492;-74
2023/07/13 14:22:52;;;;;;;4.13;1.93;;;24.80;78.50;;;;;;5110974;28;20230;-74
2023/07/13 14:25:22;;;;;;;2.40;1.60;;;24.60;78.50;;;;;;5130909;28;20322;-76
2023/07/13 14:27:58;;;;;;;2.40;1.70;;;24.60;77.60;;;;;;5130905;28;20522;-76
2023/07/13 14:30:27;;;;;;;3.93;1.70;;;24.70;81.30;;;;;;5130797;28;20240;-77
2023/07/13 14:32:55;;;;;;;3.40;1.70;;;24.60;79.60;;;;;;5112940;28;20660;-74
2023/07/13 14:35:24;;;;;;;5.27;1.80;;;24.50;76.00;;;;;;5109672;28;20213;-77
2023/07/13 14:37:52;;;;;;;5.43;1.77;;;24.60;75.10;;;;;;5109466;28;20241;-74